East Calder, United Kingdom
Current Conditions -  °F | °C
As of 6:50 PM on Friday 24 Oct 2014 (Local Time) from EGPH Reporting Station
Few Clouds Few Clouds  
Wind Chill: 42°   Ceiling: Unl
Heat Index: 48°   Visibility: 6mi
Dew Point: 43°   Wind: 15mph
Humidity: 82%   Direction: 230°SW
Pressure: 29.71"   Gusts: NA
Location:  55.89°N, 3.46°W
Report Text: EGPH 241750Z 23013KT 9999 FEW024 09/06 Q1006
Loading
Personal Weather Stations






























Interactive Weather Map New forecast layout! Learn more

10-Day Weather Forecast

Advertisements
Track Severe Weather on mobile